Time,TemperatureF,DewpointF,PressureIn,WindDirection,WindDirectionDegrees,WindSpeedMPH,WindSpeedGustMPH,Humidity,HourlyPrecipIn,Conditions,Clouds,dailyrainin,SoftwareType,DateUTC
2013-06-13 00:02:00,74.5,68.3,29.65,NW,315,4.5,10.4,81,0.00,OVC,FEW,0.00,WeatherDisplay:10.37,2013-06-13 05:02:00,
2013-06-13 00:07:00,73.9,67.7,29.64,North,0,2.2,8.1,81,0.00,OVC,FEW,0.00,WeatherDisplay:10.37,2013-06-13 05:07:00,
2013-06-13 00:13:00,73.6,68.1,29.65,NW,315,1.6,8.1,83,0.00,OVC,FEW,0.00,WeatherDisplay:10.37,2013-06-13 05:13:00,
2013-06-13 00:18:00,73.2,67.7,29.64,West,270,1.6,4.6,83,0.00,OVC,FEW,0.00,WeatherDisplay:10.37,2013-06-13 05:18:00,
2013-06-13 00:24:00,72.9,67.7,29.64,West,270,0.7,5.8,84,0.00,OVC,FEW,0.00,WeatherDisplay:10.37,2013-06-13 05:24:00,
2013-06-13 00:30:00,72.5,67.4,29.63,NW,315,0.0,3.5,84,0.00,OVC,FEW,0.00,WeatherDisplay:10.37,2013-06-13 05:30:00,
2013-06-13 00:35:00,72.3,67.2,29.63,North,0,0.7,3.5,84,0.00,OVC,FEW,0.00,WeatherDisplay:10.37,2013-06-13 05:35:00,
2013-06-13 00:41:00,72.1,67.0,29.64,West,270,2.2,5.8,84,0.00,OVC,FEW,0.00,WeatherDisplay:10.37,2013-06-13 05:41:00,
2013-06-13 00:46:00,71.8,66.7,29.65,SW,225,2.2,5.4,84,0.00,OVC,FEW,0.00,WeatherDisplay:10.37,2013-06-13 05:46:00,
2013-06-13 00:52:00,71.4,66.3,29.66,NW,315,6.0,10.4,84,0.00,OVC,FEW,0.00,WeatherDisplay:10.37,2013-06-13 05:52:00,
2013-06-13 00:58:00,70.9,65.8,29.65,North,0,1.6,6.9,84,0.00,OVC,FEW,0.00,WeatherDisplay:10.37,2013-06-13 05:58:00,
2013-06-13 01:03:00,70.5,65.4,29.65,SE,135,2.2,8.1,84,0.00,OVC,FEW,0.00,WeatherDisplay:10.37,2013-06-13 06:03:00,
2013-06-13 01:09:00,70.3,65.3,29.66,NW,315,0.7,3.5,84,0.00,OVC,FEW,0.00,WeatherDisplay:10.37,2013-06-13 06:09:00,
2013-06-13 01:14:00,70.2,65.1,29.66,SE,135,0.0,3.1,84,0.00,OVC,FEW,0.00,WeatherDisplay:10.37,2013-06-13 06:14:00,
2013-06-13 01:20:00,70.2,65.1,29.66,SW,225,1.6,3.5,84,0.00,OVC,FEW,0.00,WeatherDisplay:10.37,2013-06-13 06:20:00,
2013-06-13 01:26:00,70.2,65.1,29.67,NW,315,0.7,5.8,84,0.00,OVC,FEW,0.00,WeatherDisplay:10.37,2013-06-13 06:26:00,
2013-06-13 01:31:00,70.2,65.1,29.66,North,0,0.0,3.5,84,0.00,OVC,FEW,0.00,WeatherDisplay:10.37,2013-06-13 06:31:00,
2013-06-13 01:37:00,70.2,65.1,29.67,North,0,0.7,5.8,84,0.00,OVC,FEW,0.00,WeatherDisplay:10.37,2013-06-13 06:37:00,
2013-06-13 01:42:00,70.2,65.1,29.68,NW,315,5.4,7.6,84,0.00,OVC,FEW,0.00,WeatherDisplay:10.37,2013-06-13 06:42:00,
2013-06-13 01:48:00,70.2,65.1,29.68,NE,45,3.8,8.1,84,0.00,OVC,FEW,0.00,WeatherDisplay:10.37,2013-06-13 06:48:00,
2013-06-13 01:54:00,69.6,64.6,29.69,NW,315,5.4,12.7,84,0.00,OVC,FEW,0.00,WeatherDisplay:10.37,2013-06-13 06:54:00,
2013-06-13 01:59:00,69.3,64.2,29.70,North,0,4.5,10.4,84,0.00,OVC,FEW,0.00,WeatherDisplay:10.37,2013-06-13 06:59:00,
2013-06-13 02:05:00,69.1,64.0,29.70,North,0,3.1,8.1,84,0.00,OVC,FEW,0.00,WeatherDisplay:10.37,2013-06-13 07:05:00,
2013-06-13 02:10:00,68.9,63.9,29.71,North,0,3.8,8.1,84,0.00,OVC,FEW,0.00,WeatherDisplay:10.37,2013-06-13 07:10:00,
2013-06-13 02:16:00,68.7,63.7,29.71,North,0,4.5,12.7,84,0.00,OVC,FEW,0.00,WeatherDisplay:10.37,2013-06-13 07:16:00,
2013-06-13 02:22:00,68.7,63.7,29.72,North,0,5.4,9.2,84,0.00,OVC,FEW,0.00,WeatherDisplay:10.37,2013-06-13 07:22:00,
2013-06-13 02:27:00,68.7,63.7,29.72,North,0,3.1,6.9,84,0.00,OVC,FEW,0.00,WeatherDisplay:10.37,2013-06-13 07:27:00,
2013-06-13 02:33:00,68.7,63.7,29.72,NW,315,9.8,19.6,84,0.00,OVC,FEW,0.00,WeatherDisplay:10.37,2013-06-13 07:33:00,
2013-06-13 02:38:00,68.5,63.5,29.73,NW,315,6.0,11.5,84,0.00,OVC,FEW,0.00,WeatherDisplay:10.37,2013-06-13 07:38:00,
2013-06-13 02:44:00,68.5,63.5,29.73,NW,315,4.5,15.0,84,0.00,OVC,FEW,0.00,WeatherDisplay:10.37,2013-06-13 07:44:00,
2013-06-13 02:50:00,68.4,63.3,29.74,North,0,9.2,17.3,84,0.00,OVC,FEW,0.00,WeatherDisplay:10.37,2013-06-13 07:50:00,
2013-06-13 02:55:00,68.4,63.3,29.74,North,0,6.9,12.7,84,0.00,OVC,FEW,0.00,WeatherDisplay:10.37,2013-06-13 07:55:00,
2013-06-13 03:01:00,68.4,63.3,29.74,NE,45,6.9,15.0,84,0.00,OVC,FEW,0.00,WeatherDisplay:10.37,2013-06-13 08:01:00,
2013-06-13 03:06:00,68.2,63.2,29.75,North,0,7.6,12.1,84,0.00,OVC,FEW,0.00,WeatherDisplay:10.37,2013-06-13 08:06:00,
2013-06-13 03:12:00,68.2,63.2,29.75,NW,315,9.8,17.3,84,0.00,OVC,FEW,0.00,WeatherDisplay:10.37,2013-06-13 08:12:00,
2013-06-13 03:18:00,68.2,63.2,29.75,NW,315,2.2,10.4,84,0.00,OVC,FEW,0.00,WeatherDisplay:10.37,2013-06-13 08:18:00,
2013-06-13 03:23:00,68.2,63.2,29.75,NW,315,6.9,13.8,84,0.00,OVC,FEW,0.00,WeatherDisplay:10.37,2013-06-13 08:23:00,
2013-06-13 03:29:00,68.2,63.2,29.75,North,0,1.6,5.8,84,0.00,OVC,FEW,0.00,WeatherDisplay:10.37,2013-06-13 08:29:00,
2013-06-13 03:34:00,68.2,63.2,29.75,NE,45,2.2,8.1,84,0.00,OVC,FEW,0.00,WeatherDisplay:10.37,2013-06-13 08:34:00,
2013-06-13 03:40:00,68.2,63.2,29.75,NE,45,1.6,6.9,84,0.00,OVC,FEW,0.00,WeatherDisplay:10.37,2013-06-13 08:40:00,
2013-06-13 03:46:00,67.8,62.8,29.75,NW,315,3.8,12.7,84,0.00,OVC,FEW,0.00,WeatherDisplay:10.37,2013-06-13 08:46:00,
2013-06-13 03:51:00,67.3,62.3,29.76,NW,315,3.1,12.7,84,0.00,OVC,FEW,0.00,WeatherDisplay:10.37,2013-06-13 08:51:00,
2013-06-13 03:57:00,66.9,61.9,29.76,NW,315,4.5,9.2,84,0.00,OVC,FEW,0.00,WeatherDisplay:10.37,2013-06-13 08:57:00,
2013-06-13 04:02:00,66.4,61.4,29.76,North,0,8.3,16.1,84,0.00,OVC,FEW,0.00,WeatherDisplay:10.37,2013-06-13 09:02:00,
2013-06-13 04:08:00,66.4,61.4,29.76,NNW,338,1.6,8.1,84,0.00,OVC,FEW,0.00,WeatherDisplay:10.37,2013-06-13 09:08:00,
2013-06-13 04:14:00,66.0,61.0,29.76,North,0,6.9,12.7,84,0.00,OVC,FEW,0.00,WeatherDisplay:10.37,2013-06-13 09:14:00,
2013-06-13 04:19:00,66.0,61.0,29.76,North,0,3.8,10.4,84,0.00,OVC,FEW,0.00,WeatherDisplay:10.37,2013-06-13 09:19:00,
2013-06-13 04:25:00,66.0,61.0,29.77,NW,315,6.9,12.1,84,0.00,OVC,FEW,0.00,WeatherDisplay:10.37,2013-06-13 09:25:00,
2013-06-13 04:30:00,66.0,61.0,29.78,NW,315,7.6,14.5,84,0.00,OVC,FEW,0.00,WeatherDisplay:10.37,2013-06-13 09:30:00,
2013-06-13 04:36:00,66.0,61.0,29.78,North,0,1.6,5.8,84,0.00,OVC,FEW,0.00,WeatherDisplay:10.37,2013-06-13 09:36:00,
2013-06-13 04:42:00,65.8,60.9,29.78,North,0,7.6,13.7,84,0.00,OVC,FEW,0.00,WeatherDisplay:10.37,2013-06-13 09:42:00,
2013-06-13 04:47:00,65.7,60.7,29.79,NW,315,2.2,12.7,84,0.00,OVC,FEW,0.00,WeatherDisplay:10.37,2013-06-13 09:47:00,
2013-06-13 04:53:00,65.5,60.5,29.80,North,0,6.0,10.4,84,0.00,OVC,FEW,0.00,WeatherDisplay:10.37,2013-06-13 09:53:00,
2013-06-13 04:58:00,65.5,60.5,29.80,North,0,6.0,11.5,84,0.00,OVC,FEW,0.00,WeatherDisplay:10.37,2013-06-13 09:58:00,
2013-06-13 05:04:00,65.3,60.3,29.80,North,0,3.8,8.1,84,0.00,OVC,FEW,0.00,WeatherDisplay:10.37,2013-06-13 10:04:00,
2013-06-13 05:10:00,65.3,60.3,29.81,North,0,4.5,10.4,84,0.00,OVC,FEW,0.00,WeatherDisplay:10.37,2013-06-13 10:10:00,
2013-06-13 05:15:00,65.1,60.2,29.82,North,0,2.2,8.1,84,0.00,OVC,FEW,0.00,WeatherDisplay:10.37,2013-06-13 10:15:00,
2013-06-13 05:21:00,64.9,60.0,29.82,North,0,4.5,9.2,84,0.00,OVC,FEW,0.00,WeatherDisplay:10.37,2013-06-13 10:21:00,
2013-06-13 05:26:00,64.8,59.8,29.82,NW,315,1.6,10.4,84,0.00,OVC,FEW,0.00,WeatherDisplay:10.37,2013-06-13 10:26:00,
2013-06-13 05:32:00,64.6,59.6,29.82,NNW,338,3.8,8.1,84,0.00,OVC,FEW,0.00,WeatherDisplay:10.37,2013-06-13 10:32:00,
2013-06-13 05:38:00,64.4,59.5,29.83,North,0,3.8,10.4,84,0.00,OVC,FEW,0.00,WeatherDisplay:10.37,2013-06-13 10:38:00,
2013-06-13 05:43:00,64.2,59.3,29.83,NW,315,2.2,8.1,84,0.00,OVC,FEW,0.00,WeatherDisplay:10.37,2013-06-13 10:43:00,
2013-06-13 05:49:00,64.2,59.3,29.83,North,0,3.8,8.1,84,0.00,OVC,FEW,0.00,WeatherDisplay:10.37,2013-06-13 10:49:00,
2013-06-13 05:54:00,64.0,59.1,29.84,NW,315,3.1,6.9,84,0.00,OVC,FEW,0.00,WeatherDisplay:10.37,2013-06-13 10:54:00,
2013-06-13 06:00:00,64.0,59.1,29.84,NE,45,1.6,8.1,84,0.00,OVC,FEW,0.00,WeatherDisplay:10.37,2013-06-13 11:00:00,
2013-06-13 06:06:00,64.0,59.1,29.84,NW,315,3.1,5.4,84,0.00,OVC,FEW,0.00,WeatherDisplay:10.37,2013-06-13 11:06:00,
2013-06-13 06:11:00,64.0,59.1,29.85,North,0,3.1,9.8,84,0.00,OVC,FEW,0.00,WeatherDisplay:10.37,2013-06-13 11:11:00,
2013-06-13 06:17:00,64.0,59.1,29.85,West,270,3.1,9.2,84,0.00,OVC,FEW,0.00,WeatherDisplay:10.37,2013-06-13 11:17:00,
2013-06-13 06:22:00,64.2,59.3,29.85,NW,315,2.2,9.2,84,0.00,OVC,FEW,0.00,WeatherDisplay:10.37,2013-06-13 11:22:00,
2013-06-13 06:28:00,64.4,59.5,29.86,WNW,292,3.8,8.1,84,0.00,OVC,FEW,0.00,WeatherDisplay:10.37,2013-06-13 11:28:00,
2013-06-13 06:34:00,64.4,59.5,29.86,North,0,4.5,9.2,84,0.00,OVC,FEW,0.00,WeatherDisplay:10.37,2013-06-13 11:34:00,
2013-06-13 06:39:00,64.4,59.5,29.86,NE,45,3.8,8.1,84,0.00,OVC,FEW,0.00,WeatherDisplay:10.37,2013-06-13 11:39:00,
2013-06-13 06:45:00,64.8,59.8,29.85,North,0,4.5,16.1,84,0.00,OVC,FEW,0.00,WeatherDisplay:10.37,2013-06-13 11:45:00,
2013-06-13 06:50:00,64.9,60.0,29.87,NW,315,2.2,10.4,84,0.00,OVC,FEW,0.00,WeatherDisplay:10.37,2013-06-13 11:50:00,
2013-06-13 06:56:00,65.1,60.2,29.86,NE,45,2.2,4.6,84,0.00,OVC,FEW,0.00,WeatherDisplay:10.37,2013-06-13 11:56:00,
2013-06-13 07:02:00,65.3,60.0,29.86,North,0,3.1,4.6,83,0.00,OVC,FEW,0.00,WeatherDisplay:10.37,2013-06-13 12:02:00,
2013-06-13 07:07:00,65.3,60.0,29.87,NW,315,3.1,5.8,83,0.00,OVC,FEW,0.00,WeatherDisplay:10.37,2013-06-13 12:07:00,
2013-06-13 07:13:00,65.7,60.0,29.86,NE,45,1.6,6.9,82,0.00,OVC,FEW,0.00,WeatherDisplay:10.37,2013-06-13 12:13:00,
2013-06-13 07:18:00,65.8,60.2,29.87,North,0,2.2,8.1,82,0.00,OVC,FEW,0.00,WeatherDisplay:10.37,2013-06-13 12:18:00,
2013-06-13 07:24:00,66.0,59.7,29.87,North,0,4.5,9.2,80,0.00,OVC,FEW,0.00,WeatherDisplay:10.37,2013-06-13 12:24:00,
2013-06-13 07:30:00,66.0,59.3,29.88,NE,45,5.4,9.2,79,0.00,OVC,FEW,0.00,WeatherDisplay:10.37,2013-06-13 12:30:00,
2013-06-13 07:35:00,66.4,60.0,29.87,NW,315,3.1,5.8,80,0.00,OVC,FEW,0.00,WeatherDisplay:10.37,2013-06-13 12:35:00,
2013-06-13 07:41:00,66.7,59.7,29.88,NW,315,0.7,3.5,78,0.00,OVC,FEW,0.00,WeatherDisplay:10.37,2013-06-13 12:41:00,
2013-06-13 07:46:00,67.1,59.3,29.88,North,0,2.2,8.1,76,0.00,OVC,FEW,0.00,WeatherDisplay:10.37,2013-06-13 12:46:00,
2013-06-13 07:52:00,67.3,58.3,29.88,North,0,3.1,8.1,73,0.00,OVC,FEW,0.00,WeatherDisplay:10.37,2013-06-13 12:52:00,
2013-06-13 07:58:00,67.6,58.7,29.88,NE,45,2.2,6.0,73,0.00,OVC,FEW,0.00,WeatherDisplay:10.37,2013-06-13 12:58:00,
2013-06-13 08:03:00,67.8,58.1,29.88,NW,315,2.2,6.9,71,0.00,OVC,FEW,0.00,WeatherDisplay:10.37,2013-06-13 13:03:00,
2013-06-13 08:09:00,68.4,58.6,29.88,NW,315,1.6,3.5,71,0.00,OVC,FEW,0.00,WeatherDisplay:10.37,2013-06-13 13:09:00,
2013-06-13 08:14:00,68.7,57.7,29.89,NW,315,0.7,4.6,68,0.00,OVC,FEW,0.00,WeatherDisplay:10.37,2013-06-13 13:14:00,
2013-06-13 08:20:00,68.5,57.6,29.90,ENE,68,2.2,5.8,68,0.00,OVC,FEW,0.00,WeatherDisplay:10.37,2013-06-13 13:20:00,
2013-06-13 08:26:00,68.9,57.5,29.90,North,0,1.6,6.9,67,0.00,OVC,FEW,0.00,WeatherDisplay:10.37,2013-06-13 13:26:00,
2013-06-13 08:31:00,69.3,57.4,29.90,NW,315,3.1,6.9,66,0.00,OVC,FEW,0.00,WeatherDisplay:10.37,2013-06-13 13:31:00,
2013-06-13 08:37:00,69.6,57.3,29.91,SE,135,3.1,10.4,65,0.00,OVC,FEW,0.00,WeatherDisplay:10.37,2013-06-13 13:37:00,
2013-06-13 08:42:00,69.8,57.1,29.92,NNE,22,3.1,8.1,64,0.00,OVC,FEW,0.00,WeatherDisplay:10.37,2013-06-13 13:42:00,
2013-06-13 08:48:00,70.2,57.0,29.91,NW,315,3.8,8.1,63,0.00,OVC,FEW,0.00,WeatherDisplay:10.37,2013-06-13 13:48:00,
2013-06-13 08:54:00,71.8,57.1,29.92,SW,225,6.0,10.7,60,0.00,OVC,FEW,0.00,WeatherDisplay:10.37,2013-06-13 13:54:00,
2013-06-13 08:59:00,73.2,57.1,29.92,North,0,3.1,5.8,57,0.00,OVC,FEW,0.00,WeatherDisplay:10.37,2013-06-13 13:59:00,
2013-06-13 09:05:00,73.9,57.7,29.92,East,90,3.1,5.8,57,0.00,OVC,FEW,0.00,WeatherDisplay:10.37,2013-06-13 14:05:00,
2013-06-13 09:10:00,74.3,57.6,29.92,NNE,22,1.6,8.1,56,0.00,OVC,FEW,0.00,WeatherDisplay:10.37,2013-06-13 14:10:00,
2013-06-13 09:16:00,74.1,56.9,29.92,NW,315,4.5,8.1,55,0.00,OVC,FEW,0.00,WeatherDisplay:10.37,2013-06-13 14:16:00,
2013-06-13 09:22:00,74.8,57.6,29.92,North,0,1.6,8.1,55,0.00,OVC,FEW,0.00,WeatherDisplay:10.37,2013-06-13 14:22:00,
2013-06-13 09:27:00,75.0,57.2,29.92,NE,45,2.2,5.8,54,0.00,OVC,FEW,0.00,WeatherDisplay:10.37,2013-06-13 14:27:00,
2013-06-13 09:33:00,75.6,56.7,29.93,NW,315,3.8,7.6,52,0.00,OVC,FEW,0.00,WeatherDisplay:10.37,2013-06-13 14:33:00,
2013-06-13 09:38:00,76.3,57.4,29.93,North,0,2.2,8.1,52,0.00,OVC,FEW,0.00,WeatherDisplay:10.37,2013-06-13 14:38:00,
2013-06-13 09:44:00,76.1,56.7,29.93,North,0,2.2,8.1,51,0.00,OVC,FEW,0.00,WeatherDisplay:10.37,2013-06-13 14:44:00,
2013-06-13 09:50:00,77.4,56.7,29.93,NW,315,2.2,6.0,49,0.00,OVC,FEW,0.00,WeatherDisplay:10.37,2013-06-13 14:50:00,
2013-06-13 09:55:00,77.4,56.7,29.94,NE,45,3.8,8.1,49,0.00,OVC,FEW,0.00,WeatherDisplay:10.37,2013-06-13 14:55:00,
2013-06-13 10:01:00,78.1,57.4,29.94,North,0,3.8,3.8,49,0.00,OVC,FEW,0.00,WeatherDisplay:10.37,2013-06-13 15:01:00,
2013-06-13 10:06:00,78.1,57.4,29.93,NE,45,1.6,8.1,49,0.00,OVC,FEW,0.00,WeatherDisplay:10.37,2013-06-13 15:06:00,
2013-06-13 10:12:00,78.1,57.4,29.94,West,270,2.2,6.0,49,0.00,OVC,FEW,0.00,WeatherDisplay:10.37,2013-06-13 15:12:00,
2013-06-13 10:18:00,78.6,58.4,29.94,North,0,0.0,5.8,50,0.00,OVC,FEW,0.00,WeatherDisplay:10.37,2013-06-13 15:18:00,
2013-06-13 10:23:00,80.1,58.6,29.94,North,0,0.0,1.2,48,0.00,OVC,FEW,0.00,WeatherDisplay:10.37,2013-06-13 15:23:00,
2013-06-13 10:29:00,80.8,57.5,29.94,North,0,2.2,5.4,45,0.00,OVC,FEW,0.00,WeatherDisplay:10.37,2013-06-13 15:29:00,
2013-06-13 10:34:00,80.2,57.0,29.95,SE,135,0.0,6.9,45,0.00,OVC,FEW,0.00,WeatherDisplay:10.37,2013-06-13 15:34:00,
2013-06-13 10:40:00,80.8,55.5,29.94,NW,315,2.2,4.5,42,0.00,OVC,FEW,0.00,WeatherDisplay:10.37,2013-06-13 15:40:00,
2013-06-13 10:46:00,81.5,57.5,29.94,North,0,0.7,3.5,44,0.00,OVC,FEW,0.00,WeatherDisplay:10.37,2013-06-13 15:46:00,
2013-06-13 10:51:00,82.2,56.2,29.94,North,0,0.7,4.6,41,0.00,OVC,FEW,0.00,WeatherDisplay:10.37,2013-06-13 15:51:00,
2013-06-13 10:57:00,80.8,55.5,29.94,East,90,1.6,4.6,42,0.00,OVC,FEW,0.00,WeatherDisplay:10.37,2013-06-13 15:57:00,
2013-06-13 11:02:00,81.0,56.4,29.94,North,0,0.0,4.6,43,0.00,OVC,FEW,0.00,WeatherDisplay:10.37,2013-06-13 16:02:00,
2013-06-13 11:08:00,81.5,55.5,29.94,NW,315,3.1,5.8,41,0.00,OVC,FEW,0.00,WeatherDisplay:10.37,2013-06-13 16:08:00,
2013-06-13 11:14:00,81.5,56.2,29.94,West,270,0.0,2.3,42,0.00,OVC,FEW,0.00,WeatherDisplay:10.37,2013-06-13 16:14:00,
2013-06-13 11:19:00,82.6,56.5,29.94,SE,135,1.6,3.5,41,0.00,OVC,FEW,0.00,WeatherDisplay:10.37,2013-06-13 16:19:00,
2013-06-13 11:25:00,82.9,56.1,29.95,NE,45,0.7,3.5,40,0.00,OVC,FEW,0.00,WeatherDisplay:10.37,2013-06-13 16:25:00,
2013-06-13 11:30:00,82.0,53.2,29.95,South,180,0.7,5.8,37,0.00,OVC,FEW,0.00,WeatherDisplay:10.37,2013-06-13 16:30:00,
2013-06-13 11:36:00,82.9,56.1,29.94,East,90,0.0,3.5,40,0.00,OVC,FEW,0.00,WeatherDisplay:10.37,2013-06-13 16:36:00,
2013-06-13 11:42:00,82.8,54.6,29.94,North,0,1.6,5.8,38,0.00,OVC,FEW,0.00,WeatherDisplay:10.37,2013-06-13 16:42:00,
2013-06-13 11:47:00,82.9,55.4,29.95,North,0,1.6,3.8,39,0.00,OVC,FEW,0.00,WeatherDisplay:10.37,2013-06-13 16:47:00,
2013-06-13 11:53:00,82.8,55.3,29.95,West,270,0.0,5.8,39,0.00,OVC,FEW,0.00,WeatherDisplay:10.37,2013-06-13 16:53:00,
2013-06-13 11:58:00,83.8,54.8,29.95,NW,315,2.2,4.6,37,0.00,OVC,FEW,0.00,WeatherDisplay:10.37,2013-06-13 16:58:00,
2013-06-13 12:04:00,83.3,54.3,29.95,NE,45,1.6,3.5,37,0.00,OVC,FEW,0.00,WeatherDisplay:10.37,2013-06-13 17:04:00,
2013-06-13 12:10:00,82.0,53.2,29.95,North,0,3.8,9.2,37,0.00,OVC,FEW,0.00,WeatherDisplay:10.37,2013-06-13 17:10:00,
2013-06-13 12:15:00,82.4,53.5,29.94,East,90,1.6,3.8,37,0.00,OVC,FEW,0.00,WeatherDisplay:10.37,2013-06-13 17:15:00,
2013-06-13 12:21:00,83.5,55.9,29.94,NE,45,0.7,2.3,39,0.00,OVC,FEW,0.00,WeatherDisplay:10.37,2013-06-13 17:21:00,
2013-06-13 12:26:00,83.7,53.9,29.95,North,0,3.1,7.6,36,0.00,OVC,FEW,0.00,WeatherDisplay:10.37,2013-06-13 17:26:00,
2013-06-13 12:32:00,83.5,54.5,29.95,North,0,0.7,4.6,37,0.00,OVC,FEW,0.00,WeatherDisplay:10.37,2013-06-13 17:32:00,
2013-06-13 12:38:00,83.3,54.3,29.94,NE,45,0.0,4.6,37,0.00,OVC,FEW,0.00,WeatherDisplay:10.37,2013-06-13 17:38:00,
2013-06-13 12:43:00,84.2,54.4,29.95,NW,315,1.6,5.8,36,0.00,OVC,FEW,0.00,WeatherDisplay:10.37,2013-06-13 17:43:00,
2013-06-13 12:49:00,84.0,54.2,29.95,North,0,2.2,8.3,36,0.00,OVC,FEW,0.00,WeatherDisplay:10.37,2013-06-13 17:49:00,
2013-06-13 12:54:00,82.9,52.5,29.95,NW,315,3.1,5.8,35,0.00,OVC,FEW,0.00,WeatherDisplay:10.37,2013-06-13 17:54:00,
2013-06-13 13:00:00,82.6,55.1,29.95,East,90,1.6,5.8,39,0.00,OVC,FEW,0.00,WeatherDisplay:10.37,2013-06-13 18:00:00,
2013-06-13 13:06:00,82.4,54.2,29.95,NW,315,3.8,6.0,38,0.00,OVC,FEW,0.00,WeatherDisplay:10.37,2013-06-13 18:06:00,
2013-06-13 13:11:00,82.9,54.7,29.95,NW,315,3.1,5.8,38,0.00,OVC,FEW,0.00,WeatherDisplay:10.37,2013-06-13 18:11:00,
2013-06-13 13:17:00,83.3,55.0,29.95,NE,45,0.0,5.8,38,0.00,OVC,FEW,0.00,WeatherDisplay:10.37,2013-06-13 18:17:00,
2013-06-13 13:22:00,83.8,54.0,29.95,North,0,1.6,6.9,36,0.00,OVC,FEW,0.00,WeatherDisplay:10.37,2013-06-13 18:22:00,
2013-06-13 13:28:00,84.4,54.5,29.95,North,0,3.1,9.2,36,0.00,OVC,FEW,0.00,WeatherDisplay:10.37,2013-06-13 18:28:00,
2013-06-13 13:34:00,83.3,54.3,29.95,NW,315,3.1,5.4,37,0.00,OVC,FEW,0.00,WeatherDisplay:10.37,2013-06-13 18:34:00,
2013-06-13 13:39:00,83.8,54.8,29.95,NW,315,2.2,6.9,37,0.00,OVC,FEW,0.00,WeatherDisplay:10.37,2013-06-13 18:39:00,
2013-06-13 13:45:00,83.7,53.1,29.95,NW,315,3.8,8.1,35,0.00,OVC,FEW,0.00,WeatherDisplay:10.37,2013-06-13 18:45:00,
2013-06-13 13:50:00,83.8,54.0,29.95,North,0,3.8,6.9,36,0.00,OVC,FEW,0.00,WeatherDisplay:10.37,2013-06-13 18:50:00,
2013-06-13 13:56:00,83.1,55.6,29.95,NW,315,1.6,11.5,39,0.00,OVC,FEW,0.00,WeatherDisplay:10.37,2013-06-13 18:56:00,
2013-06-13 14:02:00,83.5,53.7,29.95,NW,315,0.7,12.7,36,0.00,OVC,FEW,0.00,WeatherDisplay:10.37,2013-06-13 19:02:00,
2013-06-13 14:07:00,82.9,52.5,29.95,NW,315,5.4,11.4,35,0.00,OVC,FEW,0.00,WeatherDisplay:10.37,2013-06-13 19:07:00,
2013-06-13 14:13:00,82.8,53.8,29.95,NW,315,4.5,12.7,37,0.00,OVC,FEW,0.00,WeatherDisplay:10.37,2013-06-13 19:13:00,
2013-06-13 14:18:00,83.7,55.4,29.95,East,90,0.7,11.5,38,0.00,OVC,FEW,0.00,WeatherDisplay:10.37,2013-06-13 19:18:00,
2013-06-13 14:24:00,84.4,56.0,29.94,NNW,338,3.1,5.8,38,0.00,OVC,FEW,0.00,WeatherDisplay:10.37,2013-06-13 19:24:00,
2013-06-13 14:30:00,84.4,56.0,29.94,NE,45,4.5,8.1,38,0.00,OVC,FEW,0.00,WeatherDisplay:10.37,2013-06-13 19:30:00,
2013-06-13 14:35:00,84.4,56.0,29.94,West,270,3.8,8.1,38,0.00,OVC,FEW,0.00,WeatherDisplay:10.37,2013-06-13 19:35:00,
2013-06-13 14:41:00,84.4,54.5,29.94,NE,45,4.5,8.1,36,0.00,OVC,FEW,0.00,WeatherDisplay:10.37,2013-06-13 19:41:00,
2013-06-13 14:46:00,83.5,53.7,29.94,North,0,3.8,9.2,36,0.00,OVC,FEW,0.00,WeatherDisplay:10.37,2013-06-13 19:46:00,
2013-06-13 14:52:00,83.3,54.3,29.94,NW,315,2.2,8.1,37,0.00,OVC,FEW,0.00,WeatherDisplay:10.37,2013-06-13 19:52:00,
2013-06-13 14:58:00,83.3,55.8,29.94,NE,45,2.2,5.8,39,0.00,OVC,FEW,0.00,WeatherDisplay:10.37,2013-06-13 19:58:00,
2013-06-13 15:03:00,82.8,55.3,29.93,NW,315,5.4,12.7,39,0.00,OVC,FEW,0.00,WeatherDisplay:10.37,2013-06-13 20:03:00,
2013-06-13 15:09:00,84.2,55.1,29.94,NW,315,2.2,6.9,37,0.00,OVC,FEW,0.00,WeatherDisplay:10.37,2013-06-13 20:09:00,
2013-06-13 15:14:00,85.6,54.8,29.94,NE,45,0.7,5.8,35,0.00,OVC,FEW,0.00,WeatherDisplay:10.37,2013-06-13 20:14:00,
2013-06-13 15:20:00,85.3,52.9,29.94,North,0,3.8,10.4,33,0.00,OVC,FEW,0.00,WeatherDisplay:10.37,2013-06-13 20:20:00,
2013-06-13 15:26:00,82.8,53.1,29.94,North,0,3.8,10.4,36,0.00,OVC,FEW,0.00,WeatherDisplay:10.37,2013-06-13 20:26:00,
2013-06-13 15:31:00,83.8,54.0,29.94,NW,315,1.6,8.1,36,0.00,OVC,FEW,0.00,WeatherDisplay:10.37,2013-06-13 20:31:00,
2013-06-13 15:37:00,84.4,53.7,29.93,NE,45,4.5,9.8,35,0.00,OVC,FEW,0.00,WeatherDisplay:10.37,2013-06-13 20:37:00,
2013-06-13 15:42:00,83.7,53.9,29.93,North,0,4.5,10.4,36,0.00,OVC,FEW,0.00,WeatherDisplay:10.37,2013-06-13 20:42:00,
2013-06-13 15:48:00,84.7,55.6,29.93,NW,315,2.2,5.8,37,0.00,OVC,FEW,0.00,WeatherDisplay:10.37,2013-06-13 20:48:00,
2013-06-13 15:54:00,83.8,54.8,29.93,North,0,3.8,8.1,37,0.00,OVC,FEW,0.00,WeatherDisplay:10.37,2013-06-13 20:54:00,
2013-06-13 15:59:00,83.3,55.0,29.93,NW,315,6.9,11.4,38,0.00,OVC,FEW,0.00,WeatherDisplay:10.37,2013-06-13 20:59:00,
2013-06-13 16:05:00,83.5,55.9,29.93,NW,315,3.1,5.8,39,0.00,OVC,FEW,0.00,WeatherDisplay:10.37,2013-06-13 21:05:00,
2013-06-13 16:10:00,84.2,54.4,29.93,NW,315,3.8,8.1,36,0.00,OVC,FEW,0.00,WeatherDisplay:10.37,2013-06-13 21:10:00,
2013-06-13 16:16:00,84.4,55.3,29.93,NNW,338,4.5,10.4,37,0.00,OVC,FEW,0.00,WeatherDisplay:10.37,2013-06-13 21:16:00,
2013-06-13 16:22:00,83.8,54.8,29.93,North,0,6.0,11.4,37,0.00,OVC,FEW,0.00,WeatherDisplay:10.37,2013-06-13 21:22:00,
2013-06-13 16:27:00,82.6,55.8,29.93,NE,45,0.7,4.6,40,0.00,OVC,FEW,0.00,WeatherDisplay:10.37,2013-06-13 21:27:00,
2013-06-13 16:33:00,82.8,55.3,29.93,North,0,1.6,8.1,39,0.00,OVC,FEW,0.00,WeatherDisplay:10.37,2013-06-13 21:33:00,
2013-06-13 16:38:00,82.4,53.5,29.93,NW,315,3.1,12.7,37,0.00,OVC,FEW,0.00,WeatherDisplay:10.37,2013-06-13 21:38:00,
2013-06-13 16:44:00,82.2,51.8,29.93,North,0,5.4,10.4,35,0.00,OVC,FEW,0.00,WeatherDisplay:10.37,2013-06-13 21:44:00,
2013-06-13 16:50:00,82.2,52.6,29.93,NNW,338,2.2,6.9,36,0.00,OVC,FEW,0.00,WeatherDisplay:10.37,2013-06-13 21:50:00,
2013-06-13 16:55:00,82.4,52.8,29.92,NE,45,3.1,8.1,36,0.00,OVC,FEW,0.00,WeatherDisplay:10.37,2013-06-13 21:55:00,
2013-06-13 17:01:00,82.2,51.1,29.93,NW,315,3.1,8.3,34,0.00,OVC,FEW,0.00,WeatherDisplay:10.37,2013-06-13 22:01:00,
2013-06-13 17:06:00,82.2,51.1,29.93,NW,315,4.5,8.3,34,0.00,OVC,FEW,0.00,WeatherDisplay:10.37,2013-06-13 22:06:00,
2013-06-13 17:12:00,81.9,52.3,29.93,NW,315,1.6,11.5,36,0.00,OVC,FEW,0.00,WeatherDisplay:10.37,2013-06-13 22:12:00,
2013-06-13 17:18:00,81.9,53.0,29.93,NW,315,3.1,8.1,37,0.00,OVC,FEW,0.00,WeatherDisplay:10.37,2013-06-13 22:18:00,
2013-06-13 17:23:00,81.3,53.3,29.93,NW,315,2.2,5.8,38,0.00,OVC,FEW,0.00,WeatherDisplay:10.37,2013-06-13 22:23:00,
2013-06-13 17:29:00,81.7,54.3,29.93,North,0,1.6,8.1,39,0.00,OVC,FEW,0.00,WeatherDisplay:10.37,2013-06-13 22:29:00,
2013-06-13 17:34:00,81.7,53.6,29.93,North,0,4.5,6.9,38,0.00,OVC,FEW,0.00,WeatherDisplay:10.37,2013-06-13 22:34:00,
2013-06-13 17:40:00,82.0,51.7,29.93,NW,315,2.2,8.1,35,0.00,OVC,FEW,0.00,WeatherDisplay:10.37,2013-06-13 22:40:00,
2013-06-13 17:46:00,82.0,50.9,29.94,SW,225,3.1,6.0,34,0.00,OVC,FEW,0.00,WeatherDisplay:10.37,2013-06-13 22:46:00,
2013-06-13 17:51:00,82.0,51.7,29.94,NE,45,3.1,5.8,35,0.00,OVC,FEW,0.00,WeatherDisplay:10.37,2013-06-13 22:51:00,
2013-06-13 17:57:00,81.7,54.3,29.94,West,270,3.1,5.8,39,0.00,OVC,FEW,0.00,WeatherDisplay:10.37,2013-06-13 22:57:00,
2013-06-13 18:02:00,81.3,54.7,29.95,WNW,292,3.1,9.2,40,0.00,OVC,FEW,0.00,WeatherDisplay:10.37,2013-06-13 23:02:00,
2013-06-13 18:08:00,81.1,54.5,29.95,North,0,0.0,8.1,40,0.00,OVC,FEW,0.00,WeatherDisplay:10.37,2013-06-13 23:08:00,
2013-06-13 18:14:00,81.5,54.8,29.95,SE,135,3.8,8.1,40,0.00,OVC,FEW,0.00,WeatherDisplay:10.37,2013-06-13 23:14:00,
2013-06-13 18:19:00,81.3,54.0,29.95,NE,45,3.8,6.9,39,0.00,OVC,FEW,0.00,WeatherDisplay:10.37,2013-06-13 23:19:00,
2013-06-13 18:25:00,81.0,53.7,29.95,NW,315,0.7,5.8,39,0.00,OVC,FEW,0.00,WeatherDisplay:10.37,2013-06-13 23:25:00,
2013-06-13 18:30:00,81.0,53.0,29.95,North,0,3.8,10.4,38,0.00,OVC,FEW,0.00,WeatherDisplay:10.37,2013-06-13 23:30:00,
2013-06-13 18:36:00,80.8,52.8,29.95,NW,315,2.2,9.2,38,0.00,OVC,FEW,0.00,WeatherDisplay:10.37,2013-06-13 23:36:00,
2013-06-13 18:42:00,81.0,53.0,29.95,North,0,0.7,5.8,38,0.00,OVC,FEW,0.00,WeatherDisplay:10.37,2013-06-13 23:42:00,
2013-06-13 18:47:00,80.6,52.6,29.95,North,0,3.1,8.1,38,0.00,OVC,FEW,0.00,WeatherDisplay:10.37,2013-06-13 23:47:00,
2013-06-13 18:53:00,80.4,51.8,29.96,North,0,3.8,8.1,37,0.00,OVC,FEW,0.00,WeatherDisplay:10.37,2013-06-13 23:53:00,
2013-06-13 18:58:00,80.2,50.9,29.96,North,0,2.2,5.8,36,0.00,OVC,FEW,0.00,WeatherDisplay:10.37,2013-06-13 23:58:00,
2013-06-13 19:04:00,80.2,50.9,29.96,North,0,1.6,5.8,36,0.00,OVC,FEW,0.00,WeatherDisplay:10.37,2013-06-14 00:04:00,
2013-06-13 19:10:00,80.4,51.8,29.96,NW,315,2.2,4.6,37,0.00,OVC,FEW,0.00,WeatherDisplay:10.37,2013-06-14 00:10:00,
2013-06-13 19:15:00,80.2,52.3,29.97,NW,315,1.6,4.6,38,0.00,OVC,FEW,0.00,WeatherDisplay:10.37,2013-06-14 00:15:00,
2013-06-13 19:21:00,80.1,52.2,29.96,North,0,2.2,6.9,38,0.00,OVC,FEW,0.00,WeatherDisplay:10.37,2013-06-14 00:21:00,
2013-06-13 19:26:00,79.9,51.3,29.96,NW,315,1.6,4.6,37,0.00,OVC,FEW,0.00,WeatherDisplay:10.37,2013-06-14 00:26:00,
2013-06-13 19:32:00,79.7,52.5,29.96,North,0,0.7,5.8,39,0.00,OVC,FEW,0.00,WeatherDisplay:10.37,2013-06-14 00:32:00,
2013-06-13 19:38:00,79.3,52.2,29.96,NW,315,2.2,8.1,39,0.00,OVC,FEW,0.00,WeatherDisplay:10.37,2013-06-14 00:38:00,
2013-06-13 19:43:00,79.2,52.1,29.96,NW,315,2.2,4.6,39,0.00,OVC,FEW,0.00,WeatherDisplay:10.37,2013-06-14 00:43:00,
2013-06-13 19:49:00,79.0,51.9,29.96,NW,315,3.8,8.1,39,0.00,OVC,FEW,0.00,WeatherDisplay:10.37,2013-06-14 00:49:00,
2013-06-13 19:54:00,78.8,51.7,29.96,North,0,4.5,8.1,39,0.00,OVC,FEW,0.00,WeatherDisplay:10.37,2013-06-14 00:54:00,
2013-06-13 20:00:00,78.6,52.3,29.97,NE,45,1.6,5.8,40,0.00,OVC,FEW,0.00,WeatherDisplay:10.37,2013-06-14 01:00:00,
2013-06-13 20:06:00,78.3,52.6,29.97,NE,45,2.2,3.8,41,0.00,OVC,FEW,0.00,WeatherDisplay:10.37,2013-06-14 01:06:00,
2013-06-13 20:11:00,78.1,52.5,29.97,NW,315,2.2,4.6,41,0.00,OVC,FEW,0.00,WeatherDisplay:10.37,2013-06-14 01:11:00,
2013-06-13 20:17:00,77.7,52.1,29.96,NW,315,3.1,3.5,41,0.00,OVC,FEW,0.00,WeatherDisplay:10.37,2013-06-14 01:17:00,
2013-06-13 20:22:00,77.4,52.5,29.96,NE,45,2.2,8.1,42,0.00,OVC,FEW,0.00,WeatherDisplay:10.37,2013-06-14 01:22:00,
2013-06-13 20:28:00,77.2,52.3,29.96,North,0,0.0,3.5,42,0.00,OVC,FEW,0.00,WeatherDisplay:10.37,2013-06-14 01:28:00,
2013-06-13 20:34:00,76.8,52.6,29.95,NE,45,0.0,1.6,43,0.00,OVC,FEW,0.00,WeatherDisplay:10.37,2013-06-14 01:34:00,
2013-06-13 20:39:00,76.3,52.1,29.96,NE,45,0.7,3.5,43,0.00,OVC,FEW,0.00,WeatherDisplay:10.37,2013-06-14 01:39:00,
2013-06-13 20:45:00,76.1,52.0,29.95,North,0,0.0,2.3,43,0.00,OVC,FEW,0.00,WeatherDisplay:10.37,2013-06-14 01:45:00,
2013-06-13 20:50:00,75.7,52.3,29.95,NW,315,0.0,2.3,44,0.00,OVC,FEW,0.00,WeatherDisplay:10.37,2013-06-14 01:50:00,
2013-06-13 20:56:00,75.4,52.6,29.95,NW,315,0.7,3.5,45,0.00,OVC,FEW,0.00,WeatherDisplay:10.37,2013-06-14 01:56:00,
2013-06-13 21:02:00,75.0,52.2,29.95,NW,315,0.0,2.3,45,0.00,OVC,FEW,0.00,WeatherDisplay:10.37,2013-06-14 02:02:00,
2013-06-13 21:07:00,74.8,52.7,29.95,NW,315,1.6,3.5,46,0.00,OVC,FEW,0.00,WeatherDisplay:10.37,2013-06-14 02:07:00,
2013-06-13 21:13:00,74.7,53.1,29.96,NW,315,0.7,3.5,47,0.00,OVC,FEW,0.00,WeatherDisplay:10.37,2013-06-14 02:13:00,
2013-06-13 21:18:00,74.3,52.8,29.96,North,0,0.0,2.3,47,0.00,OVC,FEW,0.00,WeatherDisplay:10.37,2013-06-14 02:18:00,
2013-06-13 21:24:00,74.1,53.2,29.96,North,0,0.7,2.3,48,0.00,OVC,FEW,0.00,WeatherDisplay:10.37,2013-06-14 02:24:00,
2013-06-13 21:30:00,73.8,53.4,29.95,North,0,0.0,2.3,49,0.00,OVC,FEW,0.00,WeatherDisplay:10.37,2013-06-14 02:30:00,
2013-06-13 21:35:00,73.6,53.8,29.96,NW,315,0.7,3.5,50,0.00,OVC,FEW,0.00,WeatherDisplay:10.37,2013-06-14 02:35:00,
2013-06-13 21:41:00,73.2,53.5,29.96,North,0,0.0,1.6,50,0.00,OVC,FEW,0.00,WeatherDisplay:10.37,2013-06-14 02:41:00,
2013-06-13 21:46:00,73.0,53.8,29.96,NE,45,0.0,1.2,51,0.00,OVC,FEW,0.00,WeatherDisplay:10.37,2013-06-14 02:46:00,
2013-06-13 21:52:00,72.7,54.0,29.96,North,0,0.0,2.3,52,0.00,OVC,FEW,0.00,WeatherDisplay:10.37,2013-06-14 02:52:00,
2013-06-13 21:58:00,72.5,54.4,29.96,North,0,0.0,1.6,53,0.00,OVC,FEW,0.00,WeatherDisplay:10.37,2013-06-14 02:58:00,
2013-06-13 22:03:00,72.1,54.1,29.97,North,0,0.7,3.5,53,0.00,OVC,FEW,0.00,WeatherDisplay:10.37,2013-06-14 03:03:00,
2013-06-13 22:09:00,72.1,54.1,29.96,North,0,0.7,1.2,53,0.00,OVC,FEW,0.00,WeatherDisplay:10.37,2013-06-14 03:09:00,
2013-06-13 22:14:00,71.8,54.7,29.96,North,0,0.0,2.3,55,0.00,OVC,FEW,0.00,WeatherDisplay:10.37,2013-06-14 03:14:00,
2013-06-13 22:20:00,71.6,55.1,29.96,NW,315,0.0,1.2,56,0.00,OVC,FEW,0.00,WeatherDisplay:10.37,2013-06-14 03:20:00,
2013-06-13 22:26:00,71.4,54.9,29.96,West,270,0.0,2.3,56,0.00,OVC,FEW,0.00,WeatherDisplay:10.37,2013-06-14 03:26:00,
2013-06-13 22:31:00,71.2,55.2,29.96,North,0,0.0,3.5,57,0.00,OVC,FEW,0.00,WeatherDisplay:10.37,2013-06-14 03:31:00,
2013-06-13 22:37:00,71.1,55.5,29.96,NW,315,0.0,0.0,58,0.00,OVC,FEW,0.00,WeatherDisplay:10.37,2013-06-14 03:37:00,
2013-06-13 22:42:00,70.7,55.7,29.95,North,0,0.0,0.0,59,0.00,OVC,FEW,0.00,WeatherDisplay:10.37,2013-06-14 03:42:00,
2013-06-13 22:48:00,70.7,56.1,29.95,NE,45,0.0,1.6,60,0.00,OVC,FEW,0.00,WeatherDisplay:10.37,2013-06-14 03:48:00,
2013-06-13 22:54:00,70.5,56.0,29.96,North,0,0.0,4.6,60,0.00,OVC,FEW,0.00,WeatherDisplay:10.37,2013-06-14 03:54:00,
2013-06-13 22:59:00,70.5,56.0,29.95,North,0,0.0,3.5,60,0.00,OVC,FEW,0.00,WeatherDisplay:10.37,2013-06-14 03:59:00,
2013-06-13 23:01:00,70.3,55.8,29.95,NE,45,0.0,3.5,60,0.00,OVC,FEW,0.00,WeatherDisplay:10.37,2013-06-14 04:01:00,
2013-06-13 23:02:00,70.3,55.8,29.95,NE,45,0.0,1.2,60,0.00,OVC,FEW,0.00,WeatherDisplay:10.37,2013-06-14 04:02:00,
2013-06-13 23:04:00,70.3,55.8,29.95,North,0,0.0,1.2,60,0.00,OVC,FEW,0.00,WeatherDisplay:10.37,2013-06-14 04:04:00,
2013-06-13 23:07:00,70.3,55.8,29.95,NE,45,0.0,1.2,60,0.00,OVC,FEW,0.00,WeatherDisplay:10.37,2013-06-14 04:07:00,
2013-06-13 23:13:00,70.2,55.6,29.95,NW,315,0.0,1.2,60,0.00,OVC,FEW,0.00,WeatherDisplay:10.37,2013-06-14 04:13:00,
2013-06-13 23:18:00,70.0,55.9,29.95,North,0,0.0,1.2,61,0.00,OVC,FEW,0.00,WeatherDisplay:10.37,2013-06-14 04:18:00,
2013-06-13 23:24:00,70.2,56.1,29.95,SE,135,0.0,1.6,61,0.00,OVC,FEW,0.00,WeatherDisplay:10.37,2013-06-14 04:24:00,
2013-06-13 23:30:00,70.0,55.9,29.95,NE,45,0.0,3.5,61,0.00,OVC,FEW,0.00,WeatherDisplay:10.37,2013-06-14 04:30:00,
2013-06-13 23:35:00,69.8,55.7,29.95,NE,45,0.0,3.5,61,0.00,OVC,FEW,0.00,WeatherDisplay:10.37,2013-06-14 04:35:00,
2013-06-13 23:41:00,69.8,55.7,29.95,NW,315,0.7,2.3,61,0.00,OVC,FEW,0.00,WeatherDisplay:10.37,2013-06-14 04:41:00,
2013-06-13 23:46:00,69.8,55.7,29.95,NW,315,0.0,2.3,61,0.00,OVC,FEW,0.00,WeatherDisplay:10.37,2013-06-14 04:46:00,
2013-06-13 23:52:00,69.6,55.6,29.95,North,0,2.2,4.6,61,0.00,OVC,FEW,0.00,WeatherDisplay:10.37,2013-06-14 04:52:00,
2013-06-13 23:58:00,69.8,55.7,29.95,North,0,1.6,5.8,61,0.00,OVC,FEW,0.00,WeatherDisplay:10.37,2013-06-14 04:58:00,